USHH 272000Z 35001MPS 9999 SCT036CB M02/M05 Q1021 R06/010060 TEMPO 2000 SHSN BKN005CB
QNH:(hPa/inHg/mmHg)1021 / 30.15 / 766
QFE:(hPa/inHg/mmHg)1016 / 30.00 / 762
Temperature-2
Dew Point-5
Visibility2000
WeatherShowers Snow
Cloud CoverSCT (3600);
BKN (500);
Transition Height800 m./2800 ft.
Transition LevelFL40
SQUAWK